sensor_id;sensor_type;location;lat;lon;timestamp;P1;durP1;ratioP1;P2;durP2;ratioP2
72427;SDS011;60419;48.880;18.036;2023-02-05T00:01:14;4.13;;;2.15;;
72427;SDS011;60419;48.880;18.036;2023-02-05T00:03:59;2.33;;;1.45;;
72427;SDS011;60419;48.880;18.036;2023-02-05T00:06:44;3.15;;;1.60;;
72427;SDS011;60419;48.880;18.036;2023-02-05T00:09:30;2.92;;;1.70;;
72427;SDS011;60419;48.880;18.036;2023-02-05T00:12:15;3.63;;;1.50;;
72427;SDS011;60419;48.880;18.036;2023-02-05T00:15:00;3.22;;;1.70;;
72427;SDS011;60419;48.880;18.036;2023-02-05T00:17:46;2.80;;;1.60;;
72427;SDS011;60419;48.880;18.036;2023-02-05T00:20:31;2.33;;;1.45;;
72427;SDS011;60419;48.880;18.036;2023-02-05T00:23:16;2.13;;;1.40;;
72427;SDS011;60419;48.880;18.036;2023-02-05T00:26:02;2.70;;;1.45;;
72427;SDS011;60419;48.880;18.036;2023-02-05T00:28:48;2.85;;;1.60;;
72427;SDS011;60419;48.880;18.036;2023-02-05T00:31:34;3.40;;;1.80;;
72427;SDS011;60419;48.880;18.036;2023-02-05T00:34:19;3.75;;;2.15;;
72427;SDS011;60419;48.880;18.036;2023-02-05T00:37:04;3.78;;;1.92;;
72427;SDS011;60419;48.880;18.036;2023-02-05T00:39:50;4.40;;;1.70;;
72427;SDS011;60419;48.880;18.036;2023-02-05T00:42:35;4.15;;;1.90;;
72427;SDS011;60419;48.880;18.036;2023-02-05T00:45:20;3.80;;;1.90;;
72427;SDS011;60419;48.880;18.036;2023-02-05T00:48:06;4.63;;;1.98;;
72427;SDS011;60419;48.880;18.036;2023-02-05T00:50:52;3.65;;;1.70;;
72427;SDS011;60419;48.880;18.036;2023-02-05T00:53:37;5.03;;;2.10;;
72427;SDS011;60419;48.880;18.036;2023-02-05T00:56:23;3.70;;;1.70;;
72427;SDS011;60419;48.880;18.036;2023-02-05T00:59:09;5.03;;;1.90;;
72427;SDS011;60419;48.880;18.036;2023-02-05T01:01:54;4.93;;;2.25;;
72427;SDS011;60419;48.880;18.036;2023-02-05T01:04:40;3.40;;;1.80;;
72427;SDS011;60419;48.880;18.036;2023-02-05T01:07:25;6.13;;;2.10;;
72427;SDS011;60419;48.880;18.036;2023-02-05T01:10:10;3.53;;;1.98;;
72427;SDS011;60419;48.880;18.036;2023-02-05T01:12:56;2.97;;;1.55;;
72427;SDS011;60419;48.880;18.036;2023-02-05T01:15:42;3.97;;;1.90;;
72427;SDS011;60419;48.880;18.036;2023-02-05T01:18:27;3.40;;;1.85;;
72427;SDS011;60419;48.880;18.036;2023-02-05T01:21:12;3.70;;;2.10;;
72427;SDS011;60419;48.880;18.036;2023-02-05T01:23:58;3.55;;;1.85;;
72427;SDS011;60419;48.880;18.036;2023-02-05T01:26:45;4.80;;;2.33;;
72427;SDS011;60419;48.880;18.036;2023-02-05T01:29:32;5.32;;;2.47;;
72427;SDS011;60419;48.880;18.036;2023-02-05T01:32:17;4.03;;;2.00;;
72427;SDS011;60419;48.880;18.036;2023-02-05T01:35:03;3.30;;;1.90;;
72427;SDS011;60419;48.880;18.036;2023-02-05T01:37:49;2.95;;;1.65;;
72427;SDS011;60419;48.880;18.036;2023-02-05T01:40:34;4.05;;;1.70;;
72427;SDS011;60419;48.880;18.036;2023-02-05T01:43:19;3.92;;;1.88;;
72427;SDS011;60419;48.880;18.036;2023-02-05T01:46:19;4.75;;;2.10;;
72427;SDS011;60419;48.880;18.036;2023-02-05T01:49:09;5.00;;;2.28;;
72427;SDS011;60419;48.880;18.036;2023-02-05T01:52:01;3.50;;;1.80;;
72427;SDS011;60419;48.880;18.036;2023-02-05T01:57:37;2.85;;;1.52;;
72427;SDS011;60419;48.880;18.036;2023-02-05T02:00:24;6.18;;;1.70;;
72427;SDS011;60419;48.880;18.036;2023-02-05T02:03:10;2.47;;;1.60;;
72427;SDS011;60419;48.880;18.036;2023-02-05T02:05:58;2.35;;;1.60;;
72427;SDS011;60419;48.880;18.036;2023-02-05T02:08:44;2.92;;;1.42;;
72427;SDS011;60419;48.880;18.036;2023-02-05T02:11:29;3.10;;;1.42;;
72427;SDS011;60419;48.880;18.036;2023-02-05T02:14:19;4.45;;;1.80;;
72427;SDS011;60419;48.880;18.036;2023-02-05T02:17:05;5.07;;;2.08;;
72427;SDS011;60419;48.880;18.036;2023-02-05T02:28:39;5.03;;;2.50;;
72427;SDS011;60419;48.880;18.036;2023-02-05T02:31:34;6.80;;;2.45;;
72427;SDS011;60419;48.880;18.036;2023-02-05T02:34:40;7.75;;;2.65;;
72427;SDS011;60419;48.880;18.036;2023-02-05T02:37:35;5.07;;;2.70;;
72427;SDS011;60419;48.880;18.036;2023-02-05T02:40:46;9.48;;;3.00;;
72427;SDS011;60419;48.880;18.036;2023-02-05T02:43:37;6.88;;;2.78;;
72427;SDS011;60419;48.880;18.036;2023-02-05T02:46:36;5.47;;;2.45;;
72427;SDS011;60419;48.880;18.036;2023-02-05T02:49:30;5.13;;;2.88;;
72427;SDS011;60419;48.880;18.036;2023-02-05T02:52:20;5.93;;;2.80;;
72427;SDS011;60419;48.880;18.036;2023-02-05T02:55:10;6.82;;;2.28;;
72427;SDS011;60419;48.880;18.036;2023-02-05T02:57:57;4.32;;;1.88;;
72427;SDS011;60419;48.880;18.036;2023-02-05T03:00:46;4.82;;;2.30;;
72427;SDS011;60419;48.880;18.036;2023-02-05T03:03:34;4.63;;;2.20;;
72427;SDS011;60419;48.880;18.036;2023-02-05T03:06:22;4.65;;;2.20;;
72427;SDS011;60419;48.880;18.036;2023-02-05T03:09:16;5.63;;;2.38;;
72427;SDS011;60419;48.880;18.036;2023-02-05T03:12:09;4.75;;;2.35;;
72427;SDS011;60419;48.880;18.036;2023-02-05T03:14:54;4.28;;;2.25;;
72427;SDS011;60419;48.880;18.036;2023-02-05T03:17:40;6.35;;;2.40;;
72427;SDS011;60419;48.880;18.036;2023-02-05T03:20:38;6.88;;;2.85;;
72427;SDS011;60419;48.880;18.036;2023-02-05T03:23:29;7.13;;;3.35;;
72427;SDS011;60419;48.880;18.036;2023-02-05T03:26:21;5.50;;;2.50;;
72427;SDS011;60419;48.880;18.036;2023-02-05T03:29:11;5.35;;;2.65;;
72427;SDS011;60419;48.880;18.036;2023-02-05T03:41:23;6.22;;;2.55;;
72427;SDS011;60419;48.880;18.036;2023-02-05T03:59:41;5.57;;;2.58;;
72427;SDS011;60419;48.880;18.036;2023-02-05T04:02:27;4.38;;;2.20;;
72427;SDS011;60419;48.880;18.036;2023-02-05T04:05:13;6.13;;;2.22;;
72427;SDS011;60419;48.880;18.036;2023-02-05T04:07:58;5.28;;;2.25;;
72427;SDS011;60419;48.880;18.036;2023-02-05T04:10:43;6.15;;;2.20;;
72427;SDS011;60419;48.880;18.036;2023-02-05T04:13:29;3.58;;;2.15;;
72427;SDS011;60419;48.880;18.036;2023-02-05T04:16:14;4.97;;;2.38;;
72427;SDS011;60419;48.880;18.036;2023-02-05T04:18:59;5.82;;;2.47;;
72427;SDS011;60419;48.880;18.036;2023-02-05T04:21:45;5.28;;;2.50;;
72427;SDS011;60419;48.880;18.036;2023-02-05T04:24:30;5.93;;;2.80;;
72427;SDS011;60419;48.880;18.036;2023-02-05T04:27:15;6.30;;;2.42;;
72427;SDS011;60419;48.880;18.036;2023-02-05T04:30:01;4.28;;;2.40;;
72427;SDS011;60419;48.880;18.036;2023-02-05T04:32:46;6.38;;;2.58;;
72427;SDS011;60419;48.880;18.036;2023-02-05T04:35:31;7.20;;;2.75;;
72427;SDS011;60419;48.880;18.036;2023-02-05T04:38:17;5.22;;;2.70;;
72427;SDS011;60419;48.880;18.036;2023-02-05T04:41:02;4.80;;;2.80;;
72427;SDS011;60419;48.880;18.036;2023-02-05T04:43:47;4.15;;;2.25;;
72427;SDS011;60419;48.880;18.036;2023-02-05T04:46:33;4.88;;;2.50;;
72427;SDS011;60419;48.880;18.036;2023-02-05T04:49:18;5.57;;;3.03;;
72427;SDS011;60419;48.880;18.036;2023-02-05T04:52:03;7.10;;;2.67;;
72427;SDS011;60419;48.880;18.036;2023-02-05T04:54:49;8.05;;;2.67;;
72427;SDS011;60419;48.880;18.036;2023-02-05T04:57:34;7.45;;;3.30;;
72427;SDS011;60419;48.880;18.036;2023-02-05T05:00:20;7.38;;;3.90;;
72427;SDS011;60419;48.880;18.036;2023-02-05T05:03:05;9.50;;;3.97;;
72427;SDS011;60419;48.880;18.036;2023-02-05T05:05:51;11.07;;;4.80;;
72427;SDS011;60419;48.880;18.036;2023-02-05T05:08:36;8.65;;;4.05;;
72427;SDS011;60419;48.880;18.036;2023-02-05T05:11:21;6.05;;;3.60;;
72427;SDS011;60419;48.880;18.036;2023-02-05T05:14:07;8.68;;;4.57;;
72427;SDS011;60419;48.880;18.036;2023-02-05T05:16:52;7.22;;;4.22;;
72427;SDS011;60419;48.880;18.036;2023-02-05T05:19:37;10.20;;;4.65;;
72427;SDS011;60419;48.880;18.036;2023-02-05T05:22:23;7.45;;;3.78;;
72427;SDS011;60419;48.880;18.036;2023-02-05T05:25:08;10.40;;;4.35;;
72427;SDS011;60419;48.880;18.036;2023-02-05T05:27:53;5.88;;;3.08;;
72427;SDS011;60419;48.880;18.036;2023-02-05T05:30:39;7.55;;;4.20;;
72427;SDS011;60419;48.880;18.036;2023-02-05T05:33:26;9.82;;;4.68;;
72427;SDS011;60419;48.880;18.036;2023-02-05T05:36:11;8.13;;;4.40;;
72427;SDS011;60419;48.880;18.036;2023-02-05T05:38:57;13.05;;;4.90;;
72427;SDS011;60419;48.880;18.036;2023-02-05T05:42:05;7.40;;;3.65;;
72427;SDS011;60419;48.880;18.036;2023-02-05T05:45:09;9.27;;;4.15;;
72427;SDS011;60419;48.880;18.036;2023-02-05T05:47:55;8.05;;;4.20;;
72427;SDS011;60419;48.880;18.036;2023-02-05T05:50:40;9.95;;;4.35;;
72427;SDS011;60419;48.880;18.036;2023-02-05T05:53:25;8.10;;;5.10;;
72427;SDS011;60419;48.880;18.036;2023-02-05T05:56:11;9.27;;;4.95;;
72427;SDS011;60419;48.880;18.036;2023-02-05T05:58:57;9.77;;;4.70;;
72427;SDS011;60419;48.880;18.036;2023-02-05T06:01:42;10.30;;;4.93;;
72427;SDS011;60419;48.880;18.036;2023-02-05T06:04:28;9.80;;;5.47;;
72427;SDS011;60419;48.880;18.036;2023-02-05T06:07:14;8.68;;;4.93;;
72427;SDS011;60419;48.880;18.036;2023-02-05T06:09:59;9.98;;;5.82;;
72427;SDS011;60419;48.880;18.036;2023-02-05T06:12:44;9.18;;;4.63;;
72427;SDS011;60419;48.880;18.036;2023-02-05T06:15:30;10.05;;;5.28;;
72427;SDS011;60419;48.880;18.036;2023-02-05T06:18:16;9.63;;;5.25;;
72427;SDS011;60419;48.880;18.036;2023-02-05T06:21:02;10.23;;;5.63;;
72427;SDS011;60419;48.880;18.036;2023-02-05T06:23:49;11.23;;;5.47;;
72427;SDS011;60419;48.880;18.036;2023-02-05T06:26:35;12.15;;;5.47;;
72427;SDS011;60419;48.880;18.036;2023-02-05T06:29:20;11.73;;;5.65;;
72427;SDS011;60419;48.880;18.036;2023-02-05T06:32:05;9.95;;;5.47;;
72427;SDS011;60419;48.880;18.036;2023-02-05T06:34:51;10.82;;;5.30;;
72427;SDS011;60419;48.880;18.036;2023-02-05T06:37:36;11.75;;;5.40;;
72427;SDS011;60419;48.880;18.036;2023-02-05T06:40:21;10.30;;;5.25;;
72427;SDS011;60419;48.880;18.036;2023-02-05T06:43:09;11.23;;;5.32;;
72427;SDS011;60419;48.880;18.036;2023-02-05T06:45:55;10.18;;;5.40;;
72427;SDS011;60419;48.880;18.036;2023-02-05T06:48:40;12.52;;;5.50;;
72427;SDS011;60419;48.880;18.036;2023-02-05T06:51:25;8.48;;;4.93;;
72427;SDS011;60419;48.880;18.036;2023-02-05T06:54:11;9.65;;;5.20;;
72427;SDS011;60419;48.880;18.036;2023-02-05T06:56:56;9.43;;;5.75;;
72427;SDS011;60419;48.880;18.036;2023-02-05T06:59:42;9.38;;;5.25;;
72427;SDS011;60419;48.880;18.036;2023-02-05T07:02:27;10.15;;;4.97;;
72427;SDS011;60419;48.880;18.036;2023-02-05T07:05:12;9.25;;;5.60;;
72427;SDS011;60419;48.880;18.036;2023-02-05T07:07:58;8.38;;;5.13;;
72427;SDS011;60419;48.880;18.036;2023-02-05T07:10:43;8.23;;;4.72;;
72427;SDS011;60419;48.880;18.036;2023-02-05T07:13:29;8.90;;;5.60;;
72427;SDS011;60419;48.880;18.036;2023-02-05T07:16:14;8.55;;;5.22;;
72427;SDS011;60419;48.880;18.036;2023-02-05T07:18:59;9.55;;;4.63;;
72427;SDS011;60419;48.880;18.036;2023-02-05T07:21:45;10.75;;;5.53;;
72427;SDS011;60419;48.880;18.036;2023-02-05T07:24:30;9.55;;;4.70;;
72427;SDS011;60419;48.880;18.036;2023-02-05T07:27:15;7.78;;;4.57;;
72427;SDS011;60419;48.880;18.036;2023-02-05T07:30:01;9.43;;;4.35;;
72427;SDS011;60419;48.880;18.036;2023-02-05T07:32:46;8.63;;;4.20;;
72427;SDS011;60419;48.880;18.036;2023-02-05T07:35:32;7.90;;;3.90;;
72427;SDS011;60419;48.880;18.036;2023-02-05T07:38:21;9.75;;;4.55;;
72427;SDS011;60419;48.880;18.036;2023-02-05T07:41:09;9.20;;;4.47;;
72427;SDS011;60419;48.880;18.036;2023-02-05T07:43:56;8.02;;;4.07;;
72427;SDS011;60419;48.880;18.036;2023-02-05T07:46:41;8.35;;;4.32;;
72427;SDS011;60419;48.880;18.036;2023-02-05T07:49:26;6.80;;;4.10;;
72427;SDS011;60419;48.880;18.036;2023-02-05T07:52:12;8.63;;;4.82;;
72427;SDS011;60419;48.880;18.036;2023-02-05T07:54:57;10.07;;;4.97;;
72427;SDS011;60419;48.880;18.036;2023-02-05T07:57:43;8.70;;;4.28;;
72427;SDS011;60419;48.880;18.036;2023-02-05T08:00:28;11.82;;;4.95;;
72427;SDS011;60419;48.880;18.036;2023-02-05T08:03:15;11.80;;;5.28;;
72427;SDS011;60419;48.880;18.036;2023-02-05T08:06:06;12.70;;;5.20;;
72427;SDS011;60419;48.880;18.036;2023-02-05T08:08:53;10.65;;;5.20;;
72427;SDS011;60419;48.880;18.036;2023-02-05T08:11:40;9.82;;;5.45;;
72427;SDS011;60419;48.880;18.036;2023-02-05T08:14:25;6.93;;;3.53;;
72427;SDS011;60419;48.880;18.036;2023-02-05T08:17:10;10.38;;;5.07;;
72427;SDS011;60419;48.880;18.036;2023-02-05T08:19:55;9.77;;;5.25;;
72427;SDS011;60419;48.880;18.036;2023-02-05T08:22:42;6.32;;;3.38;;
72427;SDS011;60419;48.880;18.036;2023-02-05T08:25:29;5.65;;;3.17;;
72427;SDS011;60419;48.880;18.036;2023-02-05T08:28:15;5.28;;;3.28;;
72427;SDS011;60419;48.880;18.036;2023-02-05T08:31:00;6.60;;;3.55;;
72427;SDS011;60419;48.880;18.036;2023-02-05T08:33:46;6.57;;;3.58;;
72427;SDS011;60419;48.880;18.036;2023-02-05T08:36:32;10.40;;;4.45;;
72427;SDS011;60419;48.880;18.036;2023-02-05T08:39:17;8.13;;;4.13;;
72427;SDS011;60419;48.880;18.036;2023-02-05T08:42:02;11.18;;;5.40;;
72427;SDS011;60419;48.880;18.036;2023-02-05T08:44:48;10.93;;;4.95;;
72427;SDS011;60419;48.880;18.036;2023-02-05T08:47:34;10.57;;;5.18;;
72427;SDS011;60419;48.880;18.036;2023-02-05T08:50:21;11.73;;;5.32;;
72427;SDS011;60419;48.880;18.036;2023-02-05T08:53:07;10.35;;;4.60;;
72427;SDS011;60419;48.880;18.036;2023-02-05T08:55:58;4.53;;;2.72;;
72427;SDS011;60419;48.880;18.036;2023-02-05T08:58:46;9.63;;;4.47;;
72427;SDS011;60419;48.880;18.036;2023-02-05T09:01:31;9.48;;;4.90;;
72427;SDS011;60419;48.880;18.036;2023-02-05T09:04:17;8.63;;;4.50;;
72427;SDS011;60419;48.880;18.036;2023-02-05T09:07:04;8.73;;;4.43;;
72427;SDS011;60419;48.880;18.036;2023-02-05T09:09:50;7.85;;;3.75;;
72427;SDS011;60419;48.880;18.036;2023-02-05T09:12:36;8.75;;;4.80;;
72427;SDS011;60419;48.880;18.036;2023-02-05T09:15:21;8.80;;;4.40;;
72427;SDS011;60419;48.880;18.036;2023-02-05T09:18:06;12.25;;;5.00;;
72427;SDS011;60419;48.880;18.036;2023-02-05T09:20:52;8.48;;;4.60;;
72427;SDS011;60419;48.880;18.036;2023-02-05T09:23:39;9.52;;;4.68;;
72427;SDS011;60419;48.880;18.036;2023-02-05T09:26:25;10.32;;;4.65;;
72427;SDS011;60419;48.880;18.036;2023-02-05T09:29:10;10.40;;;5.40;;
72427;SDS011;60419;48.880;18.036;2023-02-05T09:31:55;9.13;;;5.35;;
72427;SDS011;60419;48.880;18.036;2023-02-05T09:34:41;10.40;;;4.95;;
72427;SDS011;60419;48.880;18.036;2023-02-05T09:37:26;10.05;;;5.38;;
72427;SDS011;60419;48.880;18.036;2023-02-05T09:40:17;11.52;;;4.25;;
72427;SDS011;60419;48.880;18.036;2023-02-05T09:43:21;8.50;;;4.43;;
72427;SDS011;60419;48.880;18.036;2023-02-05T09:49:20;9.60;;;4.80;;
72427;SDS011;60419;48.880;18.036;2023-02-05T09:52:32;8.10;;;3.90;;
72427;SDS011;60419;48.880;18.036;2023-02-05T09:55:25;7.85;;;4.10;;
72427;SDS011;60419;48.880;18.036;2023-02-05T09:58:20;7.00;;;4.00;;
72427;SDS011;60419;48.880;18.036;2023-02-05T10:01:20;10.75;;;5.07;;
72427;SDS011;60419;48.880;18.036;2023-02-05T10:04:08;8.82;;;3.88;;
72427;SDS011;60419;48.880;18.036;2023-02-05T10:10:13;8.27;;;4.35;;
72427;SDS011;60419;48.880;18.036;2023-02-05T10:13:18;9.90;;;4.40;;
72427;SDS011;60419;48.880;18.036;2023-02-05T10:25:50;9.65;;;5.20;;
72427;SDS011;60419;48.880;18.036;2023-02-05T10:37:45;6.07;;;3.40;;
72427;SDS011;60419;48.880;18.036;2023-02-05T10:40:39;6.32;;;3.95;;
72427;SDS011;60419;48.880;18.036;2023-02-05T10:43:46;6.72;;;3.33;;
72427;SDS011;60419;48.880;18.036;2023-02-05T10:46:34;5.05;;;2.75;;
72427;SDS011;60419;48.880;18.036;2023-02-05T10:52:14;6.88;;;3.20;;
72427;SDS011;60419;48.880;18.036;2023-02-05T10:55:00;5.85;;;3.30;;
72427;SDS011;60419;48.880;18.036;2023-02-05T10:57:45;5.18;;;2.70;;
72427;SDS011;60419;48.880;18.036;2023-02-05T11:00:31;6.93;;;3.90;;
72427;SDS011;60419;48.880;18.036;2023-02-05T11:03:17;6.07;;;3.22;;
72427;SDS011;60419;48.880;18.036;2023-02-05T11:06:07;7.82;;;3.63;;
72427;SDS011;60419;48.880;18.036;2023-02-05T11:08:54;6.53;;;3.72;;
72427;SDS011;60419;48.880;18.036;2023-02-05T11:11:40;3.92;;;2.40;;
72427;SDS011;60419;48.880;18.036;2023-02-05T11:20:00;7.70;;;3.95;;
72427;SDS011;60419;48.880;18.036;2023-02-05T11:22:49;6.47;;;3.88;;
72427;SDS011;60419;48.880;18.036;2023-02-05T11:28:42;8.30;;;3.42;;
72427;SDS011;60419;48.880;18.036;2023-02-05T11:31:31;6.43;;;3.50;;
72427;SDS011;60419;48.880;18.036;2023-02-05T11:34:18;7.68;;;4.25;;
72427;SDS011;60419;48.880;18.036;2023-02-05T11:37:04;8.00;;;3.65;;
72427;SDS011;60419;48.880;18.036;2023-02-05T11:39:50;6.80;;;4.25;;
72427;SDS011;60419;48.880;18.036;2023-02-05T11:42:38;8.30;;;4.20;;
72427;SDS011;60419;48.880;18.036;2023-02-05T11:45:24;5.75;;;3.38;;
72427;SDS011;60419;48.880;18.036;2023-02-05T12:03:03;6.22;;;4.10;;
72427;SDS011;60419;48.880;18.036;2023-02-05T12:06:08;6.55;;;3.70;;
72427;SDS011;60419;48.880;18.036;2023-02-05T12:08:58;5.22;;;2.90;;
72427;SDS011;60419;48.880;18.036;2023-02-05T12:15:15;5.18;;;3.13;;
72427;SDS011;60419;48.880;18.036;2023-02-05T12:18:29;5.47;;;3.20;;
72427;SDS011;60419;48.880;18.036;2023-02-05T12:25:04;6.60;;;3.35;;
72427;SDS011;60419;48.880;18.036;2023-02-05T12:28:04;12.32;;;5.03;;
72427;SDS011;60419;48.880;18.036;2023-02-05T12:31:03;4.68;;;2.83;;
72427;SDS011;60419;48.880;18.036;2023-02-05T12:34:00;6.30;;;3.40;;
72427;SDS011;60419;48.880;18.036;2023-02-05T12:46:34;7.72;;;4.15;;
72427;SDS011;60419;48.880;18.036;2023-02-05T12:49:42;6.65;;;4.00;;
72427;SDS011;60419;48.880;18.036;2023-02-05T12:58:56;7.65;;;4.38;;
72427;SDS011;60419;48.880;18.036;2023-02-05T13:01:53;7.57;;;3.85;;
72427;SDS011;60419;48.880;18.036;2023-02-05T13:04:48;7.05;;;3.63;;
72427;SDS011;60419;48.880;18.036;2023-02-05T13:07:39;7.85;;;4.43;;
72427;SDS011;60419;48.880;18.036;2023-02-05T13:13:26;6.32;;;3.83;;
72427;SDS011;60419;48.880;18.036;2023-02-05T13:16:45;6.03;;;3.33;;
72427;SDS011;60419;48.880;18.036;2023-02-05T13:19:39;8.00;;;4.10;;
72427;SDS011;60419;48.880;18.036;2023-02-05T13:22:34;8.27;;;3.80;;
72427;SDS011;60419;48.880;18.036;2023-02-05T13:25:42;6.97;;;3.78;;
72427;SDS011;60419;48.880;18.036;2023-02-05T13:28:53;10.13;;;4.93;;
72427;SDS011;60419;48.880;18.036;2023-02-05T13:31:47;5.78;;;3.65;;
72427;SDS011;60419;48.880;18.036;2023-02-05T13:34:37;6.68;;;3.58;;
72427;SDS011;60419;48.880;18.036;2023-02-05T13:37:29;8.40;;;3.97;;
72427;SDS011;60419;48.880;18.036;2023-02-05T13:51:25;9.25;;;3.60;;
72427;SDS011;60419;48.880;18.036;2023-02-05T13:57:46;8.73;;;4.00;;
72427;SDS011;60419;48.880;18.036;2023-02-05T14:03:37;6.47;;;3.40;;
72427;SDS011;60419;48.880;18.036;2023-02-05T14:12:26;7.97;;;3.72;;
72427;SDS011;60419;48.880;18.036;2023-02-05T14:18:00;7.43;;;4.00;;
72427;SDS011;60419;48.880;18.036;2023-02-05T14:20:46;7.68;;;4.60;;
72427;SDS011;60419;48.880;18.036;2023-02-05T14:29:42;11.88;;;5.43;;
72427;SDS011;60419;48.880;18.036;2023-02-05T14:35:26;9.52;;;5.10;;
72427;SDS011;60419;48.880;18.036;2023-02-05T14:38:23;10.38;;;4.78;;
72427;SDS011;60419;48.880;18.036;2023-02-05T14:43:59;8.98;;;4.53;;
72427;SDS011;60419;48.880;18.036;2023-02-05T14:46:53;8.85;;;4.47;;
72427;SDS011;60419;48.880;18.036;2023-02-05T14:49:45;7.85;;;3.83;;
72427;SDS011;60419;48.880;18.036;2023-02-05T14:55:34;5.97;;;3.75;;
72427;SDS011;60419;48.880;18.036;2023-02-05T14:58:25;13.00;;;6.07;;
72427;SDS011;60419;48.880;18.036;2023-02-05T15:01:39;10.23;;;4.35;;
72427;SDS011;60419;48.880;18.036;2023-02-05T15:04:47;11.25;;;6.22;;
72427;SDS011;60419;48.880;18.036;2023-02-05T15:07:34;9.95;;;5.38;;
72427;SDS011;60419;48.880;18.036;2023-02-05T15:10:21;10.77;;;5.50;;
72427;SDS011;60419;48.880;18.036;2023-02-05T15:13:11;9.43;;;5.88;;
72427;SDS011;60419;48.880;18.036;2023-02-05T15:18:58;13.82;;;6.18;;
72427;SDS011;60419;48.880;18.036;2023-02-05T15:21:48;9.30;;;5.68;;
72427;SDS011;60419;48.880;18.036;2023-02-05T15:24:37;13.00;;;6.18;;
72427;SDS011;60419;48.880;18.036;2023-02-05T15:27:29;6.57;;;3.38;;
72427;SDS011;60419;48.880;18.036;2023-02-05T15:30:25;9.65;;;5.53;;
72427;SDS011;60419;48.880;18.036;2023-02-05T15:33:16;8.35;;;4.60;;
72427;SDS011;60419;48.880;18.036;2023-02-05T15:36:11;10.07;;;4.25;;
72427;SDS011;60419;48.880;18.036;2023-02-05T15:39:09;8.15;;;4.53;;
72427;SDS011;60419;48.880;18.036;2023-02-05T15:42:00;8.68;;;4.75;;
72427;SDS011;60419;48.880;18.036;2023-02-05T15:44:47;7.38;;;3.67;;
72427;SDS011;60419;48.880;18.036;2023-02-05T15:47:32;6.40;;;3.83;;
72427;SDS011;60419;48.880;18.036;2023-02-05T15:50:18;12.05;;;5.75;;
72427;SDS011;60419;48.880;18.036;2023-02-05T15:53:03;12.10;;;5.45;;
72427;SDS011;60419;48.880;18.036;2023-02-05T15:55:54;11.65;;;4.72;;
72427;SDS011;60419;48.880;18.036;2023-02-05T15:58:48;7.70;;;4.30;;
72427;SDS011;60419;48.880;18.036;2023-02-05T16:01:40;9.80;;;4.70;;
72427;SDS011;60419;48.880;18.036;2023-02-05T16:04:43;7.40;;;4.05;;
72427;SDS011;60419;48.880;18.036;2023-02-05T16:07:33;10.50;;;4.32;;
72427;SDS011;60419;48.880;18.036;2023-02-05T16:10:25;9.10;;;4.65;;
72427;SDS011;60419;48.880;18.036;2023-02-05T16:13:13;11.60;;;5.20;;
72427;SDS011;60419;48.880;18.036;2023-02-05T16:16:04;6.38;;;3.65;;
72427;SDS011;60419;48.880;18.036;2023-02-05T16:18:54;9.55;;;4.45;;
72427;SDS011;60419;48.880;18.036;2023-02-05T16:21:49;8.60;;;4.30;;
72427;SDS011;60419;48.880;18.036;2023-02-05T16:24:40;8.45;;;5.38;;
72427;SDS011;60419;48.880;18.036;2023-02-05T16:27:31;9.02;;;4.80;;
72427;SDS011;60419;48.880;18.036;2023-02-05T16:33:29;10.85;;;4.75;;
72427;SDS011;60419;48.880;18.036;2023-02-05T16:36:20;10.98;;;5.32;;
72427;SDS011;60419;48.880;18.036;2023-02-05T16:42:08;8.93;;;5.00;;
72427;SDS011;60419;48.880;18.036;2023-02-05T16:45:41;9.77;;;5.10;;
72427;SDS011;60419;48.880;18.036;2023-02-05T16:48:22;11.18;;;5.70;;
72427;SDS011;60419;48.880;18.036;2023-02-05T16:51:27;8.10;;;4.55;;
72427;SDS011;60419;48.880;18.036;2023-02-05T16:57:03;15.68;;;6.03;;
72427;SDS011;60419;48.880;18.036;2023-02-05T16:59:52;8.52;;;4.43;;
72427;SDS011;60419;48.880;18.036;2023-02-05T17:02:41;7.47;;;3.80;;
72427;SDS011;60419;48.880;18.036;2023-02-05T17:05:30;12.90;;;6.35;;
72427;SDS011;60419;48.880;18.036;2023-02-05T17:17:14;10.98;;;5.50;;
72427;SDS011;60419;48.880;18.036;2023-02-05T17:23:07;12.48;;;6.22;;
72427;SDS011;60419;48.880;18.036;2023-02-05T17:25:54;10.45;;;5.03;;
72427;SDS011;60419;48.880;18.036;2023-02-05T17:28:39;9.68;;;4.82;;
72427;SDS011;60419;48.880;18.036;2023-02-05T17:31:29;8.23;;;5.70;;
72427;SDS011;60419;48.880;18.036;2023-02-05T17:34:19;13.63;;;5.75;;
72427;SDS011;60419;48.880;18.036;2023-02-05T17:37:04;12.52;;;5.55;;
72427;SDS011;60419;48.880;18.036;2023-02-05T17:39:49;11.85;;;5.30;;
72427;SDS011;60419;48.880;18.036;2023-02-05T17:42:35;10.80;;;5.38;;
72427;SDS011;60419;48.880;18.036;2023-02-05T17:45:22;7.75;;;4.35;;
72427;SDS011;60419;48.880;18.036;2023-02-05T17:48:09;13.23;;;5.60;;
72427;SDS011;60419;48.880;18.036;2023-02-05T17:50:55;7.90;;;4.35;;
72427;SDS011;60419;48.880;18.036;2023-02-05T17:53:43;12.75;;;6.38;;
72427;SDS011;60419;48.880;18.036;2023-02-05T17:56:28;10.40;;;5.45;;
72427;SDS011;60419;48.880;18.036;2023-02-05T17:59:14;11.80;;;6.28;;
72427;SDS011;60419;48.880;18.036;2023-02-05T18:02:04;8.73;;;4.57;;
72427;SDS011;60419;48.880;18.036;2023-02-05T18:04:51;8.75;;;4.25;;
72427;SDS011;60419;48.880;18.036;2023-02-05T18:07:41;12.68;;;5.53;;
72427;SDS011;60419;48.880;18.036;2023-02-05T18:10:29;8.18;;;4.45;;
72427;SDS011;60419;48.880;18.036;2023-02-05T18:13:18;8.82;;;5.40;;
72427;SDS011;60419;48.880;18.036;2023-02-05T18:16:05;13.35;;;6.28;;
72427;SDS011;60419;48.880;18.036;2023-02-05T18:18:51;9.00;;;4.55;;
72427;SDS011;60419;48.880;18.036;2023-02-05T18:21:36;11.85;;;5.78;;
72427;SDS011;60419;48.880;18.036;2023-02-05T18:24:22;10.63;;;5.57;;
72427;SDS011;60419;48.880;18.036;2023-02-05T18:27:08;10.98;;;5.70;;
72427;SDS011;60419;48.880;18.036;2023-02-05T18:29:53;8.73;;;4.55;;
72427;SDS011;60419;48.880;18.036;2023-02-05T18:32:39;7.88;;;4.63;;
72427;SDS011;60419;48.880;18.036;2023-02-05T18:35:24;11.18;;;4.30;;
72427;SDS011;60419;48.880;18.036;2023-02-05T18:38:09;10.00;;;5.10;;
72427;SDS011;60419;48.880;18.036;2023-02-05T18:41:02;11.30;;;5.50;;
72427;SDS011;60419;48.880;18.036;2023-02-05T18:43:54;7.80;;;4.13;;
72427;SDS011;60419;48.880;18.036;2023-02-05T18:46:40;5.82;;;3.40;;
72427;SDS011;60419;48.880;18.036;2023-02-05T18:49:26;10.48;;;5.53;;
72427;SDS011;60419;48.880;18.036;2023-02-05T18:52:11;9.02;;;4.68;;
72427;SDS011;60419;48.880;18.036;2023-02-05T18:54:58;9.93;;;5.63;;
72427;SDS011;60419;48.880;18.036;2023-02-05T18:57:43;8.15;;;4.18;;
72427;SDS011;60419;48.880;18.036;2023-02-05T19:00:29;10.93;;;4.50;;
72427;SDS011;60419;48.880;18.036;2023-02-05T19:03:15;10.68;;;4.00;;
72427;SDS011;60419;48.880;18.036;2023-02-05T19:06:04;8.70;;;4.13;;
72427;SDS011;60419;48.880;18.036;2023-02-05T19:08:49;10.32;;;5.03;;
72427;SDS011;60419;48.880;18.036;2023-02-05T19:11:35;6.40;;;4.40;;
72427;SDS011;60419;48.880;18.036;2023-02-05T19:14:24;8.63;;;3.97;;
72427;SDS011;60419;48.880;18.036;2023-02-05T19:17:10;9.77;;;5.28;;
72427;SDS011;60419;48.880;18.036;2023-02-05T19:19:55;7.97;;;4.22;;
72427;SDS011;60419;48.880;18.036;2023-02-05T19:22:42;12.57;;;5.18;;
72427;SDS011;60419;48.880;18.036;2023-02-05T19:25:27;9.45;;;4.78;;
72427;SDS011;60419;48.880;18.036;2023-02-05T19:28:13;7.57;;;4.38;;
72427;SDS011;60419;48.880;18.036;2023-02-05T19:31:03;8.18;;;4.85;;
72427;SDS011;60419;48.880;18.036;2023-02-05T19:33:50;8.63;;;4.65;;
72427;SDS011;60419;48.880;18.036;2023-02-05T19:36:35;8.10;;;4.10;;